createdAt,value
2024-01-06T00:00:24.249Z,0.40
2024-01-06T00:02:51.473Z,0.40
2024-01-06T00:05:18.492Z,0.50
2024-01-06T00:07:45.597Z,0.50
2024-01-06T00:10:15.149Z,0.50
2024-01-06T00:12:43.708Z,0.40
2024-01-06T00:15:12.036Z,0.50
2024-01-06T00:17:39.365Z,0.50
2024-01-06T00:20:07.494Z,0.50
2024-01-06T00:22:34.804Z,0.50
2024-01-06T00:25:01.943Z,0.40
2024-01-06T00:27:28.995Z,0.40
2024-01-06T00:29:56.033Z,0.40
2024-01-06T00:32:23.071Z,0.40
2024-01-06T00:34:50.144Z,0.40
2024-01-06T00:37:17.231Z,0.40
2024-01-06T00:39:44.310Z,0.30
2024-01-06T00:42:11.528Z,0.30
2024-01-06T00:44:39.324Z,0.30
2024-01-06T00:47:06.382Z,0.30
2024-01-06T00:49:33.580Z,0.30
2024-01-06T00:52:00.796Z,0.30
2024-01-06T00:54:27.777Z,0.30
2024-01-06T00:56:57.426Z,0.30
2024-01-06T00:59:25.321Z,0.30
2024-01-06T01:01:52.508Z,0.30
2024-01-06T01:04:19.640Z,0.30
2024-01-06T01:06:46.822Z,0.30
2024-01-06T01:09:15.552Z,0.30
2024-01-06T01:11:43.057Z,0.30
2024-01-06T01:14:10.230Z,0.30
2024-01-06T01:16:37.339Z,0.40
2024-01-06T01:19:04.675Z,0.30
2024-01-06T01:21:31.854Z,0.30
2024-01-06T01:23:58.915Z,0.20
2024-01-06T01:26:26.666Z,0.20
2024-01-06T01:28:53.664Z,0.20
2024-01-06T01:31:20.957Z,0.20
2024-01-06T01:33:48.308Z,0.10
2024-01-06T01:36:15.551Z,0.10
2024-01-06T01:38:42.623Z,0.10
2024-01-06T01:41:09.682Z,0.10
2024-01-06T01:43:36.674Z,0.10
2024-01-06T01:46:03.979Z,0.10
2024-01-06T01:48:32.430Z,0.00
2024-01-06T01:50:59.612Z,0.00
2024-01-06T01:53:27.952Z,0.10
2024-01-06T01:55:55.735Z,0.10
2024-01-06T01:58:22.735Z,0.10
2024-01-06T02:00:49.915Z,0.10
2024-01-06T02:03:17.725Z,0.10
2024-01-06T02:05:44.790Z,0.10
2024-01-06T02:08:11.860Z,0.10
2024-01-06T02:10:39.119Z,0.10
2024-01-06T02:13:10.617Z,0.00
2024-01-06T02:15:38.463Z,0.10
2024-01-06T02:18:06.101Z,0.10
2024-01-06T02:20:33.887Z,0.10
2024-01-06T02:23:01.868Z,0.00
2024-01-06T02:25:29.150Z,0.10
2024-01-06T02:27:56.737Z,0.20
2024-01-06T02:30:23.965Z,0.10
2024-01-06T02:32:51.057Z,0.20
2024-01-06T02:35:18.068Z,0.10
2024-01-06T02:37:45.207Z,0.10
2024-01-06T02:40:12.809Z,0.10
2024-01-06T02:42:39.846Z,0.00
2024-01-06T02:45:08.751Z,0.00
2024-01-06T02:47:35.821Z,0.00
2024-01-06T02:50:02.997Z,0.00
2024-01-06T02:52:30.055Z,0.10
2024-01-06T02:54:57.180Z,0.10
2024-01-06T02:57:24.296Z,0.10
2024-01-06T02:59:51.549Z,0.20
2024-01-06T03:02:18.623Z,0.20
2024-01-06T03:04:45.697Z,0.20
2024-01-06T03:07:12.674Z,0.20
2024-01-06T03:09:42.463Z,0.20
2024-01-06T03:12:09.710Z,0.20
2024-01-06T03:14:37.025Z,0.10
2024-01-06T03:17:04.647Z,0.10
2024-01-06T03:19:34.891Z,0.20
2024-01-06T03:22:02.048Z,0.20
2024-01-06T03:24:29.143Z,0.20
2024-01-06T03:26:56.164Z,0.20
2024-01-06T03:29:23.134Z,0.20
2024-01-06T03:31:50.246Z,0.30
2024-01-06T03:34:17.623Z,0.30
2024-01-06T03:36:44.839Z,0.30
2024-01-06T03:39:12.112Z,0.30
2024-01-06T03:41:39.293Z,0.20
2024-01-06T03:44:06.469Z,0.10
2024-01-06T03:46:35.796Z,0.10
2024-01-06T03:49:03.069Z,0.20
2024-01-06T03:51:30.226Z,0.10
2024-01-06T03:53:57.354Z,0.10
2024-01-06T03:56:24.365Z,0.00
2024-01-06T03:58:51.462Z,0.00
2024-01-06T04:01:18.470Z,0.00
2024-01-06T04:03:45.596Z,0.00
2024-01-06T04:06:12.946Z,0.00
2024-01-06T04:08:41.666Z,0.00
2024-01-06T04:11:08.599Z,0.10
2024-01-06T04:13:35.600Z,0.00
2024-01-06T04:16:03.821Z,-0.10
2024-01-06T04:18:31.016Z,0.00
2024-01-06T04:20:58.178Z,-0.10
2024-01-06T04:23:26.490Z,0.00
2024-01-06T04:25:53.842Z,0.00
2024-01-06T04:28:20.955Z,0.10
2024-01-06T04:30:48.194Z,0.10
2024-01-06T04:33:15.871Z,0.10
2024-01-06T04:35:42.944Z,0.10
2024-01-06T04:38:10.342Z,0.10
2024-01-06T04:40:37.432Z,0.20
2024-01-06T04:43:04.861Z,0.20
2024-01-06T04:45:32.213Z,0.20
2024-01-06T04:47:59.312Z,0.30
2024-01-06T04:50:26.334Z,0.30
2024-01-06T04:52:53.257Z,0.40
2024-01-06T04:55:20.335Z,0.30
2024-01-06T04:57:50.900Z,0.40
2024-01-06T05:00:18.129Z,0.40
2024-01-06T05:02:45.839Z,0.40
2024-01-06T05:05:12.997Z,0.40
2024-01-06T05:07:40.034Z,0.30
2024-01-06T05:10:07.694Z,0.40
2024-01-06T05:12:34.714Z,0.40
2024-01-06T05:15:01.748Z,0.40
2024-01-06T05:17:28.904Z,0.30
2024-01-06T05:19:56.593Z,0.30
2024-01-06T05:22:23.596Z,0.30
2024-01-06T05:24:54.459Z,0.30
2024-01-06T05:27:21.796Z,0.30
2024-01-06T05:29:50.392Z,0.30
2024-01-06T05:32:18.786Z,0.30
2024-01-06T05:34:46.773Z,0.30
2024-01-06T05:37:14.122Z,0.20
2024-01-06T05:39:41.678Z,0.20
2024-01-06T05:42:14.307Z,0.20
2024-01-06T05:44:41.508Z,0.20
2024-01-06T05:47:09.748Z,0.20
2024-01-06T05:49:36.937Z,0.20
2024-01-06T05:52:04.168Z,0.10
2024-01-06T05:54:31.860Z,0.00
2024-01-06T05:56:58.988Z,0.00
2024-01-06T05:59:25.953Z,0.10
2024-01-06T06:01:53.594Z,0.10
2024-01-06T06:04:20.814Z,0.10
2024-01-06T06:06:47.929Z,0.10
2024-01-06T06:09:16.904Z,0.10
2024-01-06T06:11:44.307Z,0.10
2024-01-06T06:14:11.312Z,0.10
2024-01-06T06:16:38.310Z,0.20
2024-01-06T06:19:05.603Z,0.20
2024-01-06T06:21:32.845Z,0.30
2024-01-06T06:23:59.872Z,0.20
2024-01-06T06:26:29.693Z,0.20
2024-01-06T06:28:56.660Z,0.10
2024-01-06T06:31:23.837Z,0.10
2024-01-06T06:33:51.030Z,0.10
2024-01-06T06:36:18.184Z,0.00
2024-01-06T06:38:45.348Z,0.00
2024-01-06T06:41:12.336Z,0.10
2024-01-06T06:43:39.363Z,0.10
2024-01-06T06:46:06.351Z,0.20
2024-01-06T06:48:33.406Z,0.20
2024-01-06T06:51:01.166Z,0.20
2024-01-06T06:53:28.120Z,0.20
2024-01-06T06:55:55.163Z,0.10
2024-01-06T06:58:22.195Z,0.10
2024-01-06T07:00:49.155Z,0.10
2024-01-06T07:03:17.284Z,0.10
2024-01-06T07:05:44.329Z,0.00
2024-01-06T07:08:11.482Z,0.00
2024-01-06T07:10:39.109Z,0.10
2024-01-06T07:13:06.643Z,0.10
2024-01-06T07:15:33.852Z,0.10
2024-01-06T07:18:01.015Z,0.10
2024-01-06T07:20:28.057Z,0.10
2024-01-06T07:22:55.033Z,0.10
2024-01-06T07:25:21.954Z,0.10
2024-01-06T07:27:51.383Z,0.10
2024-01-06T07:30:19.741Z,0.10
2024-01-06T07:32:46.768Z,0.10
2024-01-06T07:35:13.960Z,0.10
2024-01-06T07:37:40.942Z,0.10
2024-01-06T07:40:08.244Z,0.20
2024-01-06T07:42:35.368Z,0.10
2024-01-06T07:45:03.538Z,0.10
2024-01-06T07:47:30.541Z,0.10
2024-01-06T07:49:58.740Z,0.10
2024-01-06T07:52:25.886Z,0.10
2024-01-06T07:54:52.866Z,0.20
2024-01-06T07:57:19.956Z,0.20
2024-01-06T07:59:47.223Z,0.20
2024-01-06T08:02:14.249Z,0.10
2024-01-06T08:04:41.242Z,0.10
2024-01-06T08:07:08.427Z,0.10
2024-01-06T08:09:35.494Z,0.20
2024-01-06T08:12:04.392Z,0.20
2024-01-06T08:14:31.435Z,0.20
2024-01-06T08:16:58.533Z,0.20
2024-01-06T08:19:25.878Z,0.20
2024-01-06T08:21:53.047Z,0.30
2024-01-06T08:24:20.155Z,0.30
2024-01-06T08:26:47.193Z,0.30
2024-01-06T08:29:15.390Z,0.30
2024-01-06T08:31:42.448Z,0.30
2024-01-06T08:34:10.203Z,0.30
2024-01-06T08:36:37.266Z,0.40
2024-01-06T08:39:04.370Z,0.30
2024-01-06T08:41:31.425Z,0.30
2024-01-06T08:43:58.645Z,0.30
2024-01-06T08:46:25.560Z,0.30
2024-01-06T08:48:52.635Z,0.30
2024-01-06T08:51:21.826Z,0.30
2024-01-06T08:53:48.943Z,0.30
2024-01-06T08:56:30.894Z,0.30
2024-01-06T08:58:58.362Z,0.20
2024-01-06T09:01:26.124Z,0.30
2024-01-06T09:03:53.302Z,0.30
2024-01-06T09:06:20.469Z,0.20
2024-01-06T09:08:47.433Z,0.30
2024-01-06T09:11:14.477Z,0.30
2024-01-06T09:13:41.423Z,0.30
2024-01-06T09:16:08.728Z,0.20
2024-01-06T09:18:35.839Z,0.10
2024-01-06T09:21:04.287Z,0.20
2024-01-06T09:23:32.956Z,0.20
2024-01-06T09:26:00.060Z,0.30
2024-01-06T09:28:26.988Z,0.30
2024-01-06T09:30:57.104Z,0.30
2024-01-06T09:33:24.625Z,0.30
2024-01-06T09:35:52.055Z,0.30
2024-01-06T09:38:19.912Z,0.40
2024-01-06T09:40:49.563Z,0.40
2024-01-06T09:43:16.737Z,0.40
2024-01-06T09:45:44.828Z,0.40
2024-01-06T09:48:16.052Z,0.50
2024-01-06T09:50:45.812Z,0.40
2024-01-06T09:53:13.488Z,0.40
2024-01-06T09:55:40.488Z,0.40
2024-01-06T09:58:08.190Z,0.30
2024-01-06T10:00:35.552Z,0.40
2024-01-06T10:03:02.564Z,0.40
2024-01-06T10:05:29.869Z,0.40
2024-01-06T10:07:56.805Z,0.30
2024-01-06T10:10:24.491Z,0.30
2024-01-06T10:12:54.990Z,0.40
2024-01-06T10:15:22.277Z,0.40
2024-01-06T10:17:49.326Z,0.30
2024-01-06T10:20:18.951Z,0.30
2024-01-06T10:22:46.768Z,0.30
2024-01-06T10:25:14.230Z,0.30
2024-01-06T10:27:42.441Z,0.40
2024-01-06T10:30:11.429Z,0.30
2024-01-06T10:32:40.393Z,0.30
2024-01-06T10:35:08.630Z,0.20
2024-01-06T10:37:36.840Z,0.30
2024-01-06T10:40:21.806Z,0.40
2024-01-06T10:42:49.124Z,0.30
2024-01-06T10:45:17.054Z,0.30
2024-01-06T10:47:45.513Z,0.40
2024-01-06T10:50:12.846Z,0.30
2024-01-06T10:52:40.576Z,0.30
2024-01-06T10:55:08.098Z,0.30
2024-01-06T10:57:35.738Z,0.30
2024-01-06T11:00:02.986Z,0.30
2024-01-06T11:02:32.286Z,0.30
2024-01-06T11:04:59.432Z,0.30
2024-01-06T11:07:27.346Z,0.40
2024-01-06T11:09:59.714Z,0.40
2024-01-06T11:12:27.769Z,0.40
2024-01-06T11:14:55.529Z,0.40
2024-01-06T11:17:55.633Z,0.50
2024-01-06T11:20:24.137Z,0.50
2024-01-06T11:22:52.280Z,0.50
2024-01-06T11:25:21.544Z,0.50
2024-01-06T11:27:50.365Z,0.60
2024-01-06T11:30:26.100Z,0.50
2024-01-06T11:32:55.011Z,0.50
2024-01-06T11:35:23.190Z,0.40
2024-01-06T11:37:50.716Z,0.50
2024-01-06T11:40:27.032Z,0.50
2024-01-06T11:43:03.778Z,0.40
2024-01-06T11:45:31.489Z,0.50
2024-01-06T11:48:04.757Z,0.40
2024-01-06T11:50:37.095Z,0.40
2024-01-06T11:53:05.451Z,0.40
2024-01-06T11:55:33.500Z,0.40
2024-01-06T11:58:05.196Z,0.50
2024-01-06T12:00:33.911Z,0.50
2024-01-06T12:03:02.405Z,0.50
2024-01-06T12:05:29.746Z,0.40
2024-01-06T12:07:58.858Z,0.40
2024-01-06T12:10:27.452Z,0.40
2024-01-06T12:13:03.821Z,0.50
2024-01-06T12:15:32.848Z,0.50
2024-01-06T12:18:00.486Z,0.50
2024-01-06T12:20:30.183Z,0.60
2024-01-06T12:22:57.632Z,0.60
2024-01-06T12:25:26.768Z,0.50
2024-01-06T12:27:55.107Z,0.50
2024-01-06T12:30:24.265Z,0.50
2024-01-06T12:32:53.876Z,0.50
2024-01-06T12:35:22.693Z,0.50
2024-01-06T12:37:50.068Z,0.50
2024-01-06T12:40:18.806Z,0.50
2024-01-06T12:42:46.646Z,0.60
2024-01-06T12:45:14.562Z,0.50
2024-01-06T12:47:42.618Z,0.60
2024-01-06T12:50:10.176Z,0.60
2024-01-06T12:52:39.228Z,0.60
2024-01-06T12:55:07.812Z,0.60
2024-01-06T12:57:35.270Z,0.60
2024-01-06T13:00:02.613Z,0.60
2024-01-06T13:02:29.689Z,0.50
2024-01-06T13:04:56.797Z,0.50
2024-01-06T13:07:24.081Z,0.60
2024-01-06T13:09:51.451Z,0.60
2024-01-06T13:12:19.922Z,0.60
2024-01-06T13:14:50.789Z,0.60
2024-01-06T13:17:18.348Z,0.70
2024-01-06T13:19:45.522Z,0.60
2024-01-06T13:22:12.711Z,0.60
2024-01-06T13:24:41.784Z,0.70
2024-01-06T13:27:09.441Z,0.70
2024-01-06T13:29:36.523Z,0.60
2024-01-06T13:32:03.875Z,0.60
2024-01-06T13:34:31.444Z,0.60
2024-01-06T13:36:58.878Z,0.60
2024-01-06T13:39:26.022Z,0.50
2024-01-06T13:41:53.304Z,0.60
2024-01-06T13:44:20.443Z,0.50
2024-01-06T13:46:48.963Z,0.40
2024-01-06T13:49:16.233Z,0.50
2024-01-06T13:51:43.377Z,0.50
2024-01-06T13:54:11.017Z,0.50
2024-01-06T13:56:38.506Z,0.50
2024-01-06T13:59:05.625Z,0.50
2024-01-06T14:01:34.049Z,0.50
2024-01-06T14:04:01.773Z,0.50
2024-01-06T14:06:32.505Z,0.50
2024-01-06T14:09:00.578Z,0.50
2024-01-06T14:11:28.469Z,0.50
2024-01-06T14:13:55.977Z,0.50
2024-01-06T14:16:23.180Z,0.60
2024-01-06T14:18:50.571Z,0.50
2024-01-06T14:21:20.908Z,0.60
2024-01-06T14:23:49.937Z,0.60
2024-01-06T14:26:18.382Z,0.60
2024-01-06T14:28:45.469Z,0.60
2024-01-06T14:31:12.684Z,0.60
2024-01-06T14:33:39.809Z,0.60
2024-01-06T14:36:07.779Z,0.60
2024-01-06T14:38:34.824Z,0.50
2024-01-06T14:41:01.961Z,0.50
2024-01-06T14:43:29.021Z,0.50
2024-01-06T14:45:56.156Z,0.50
2024-01-06T14:48:23.823Z,0.50
2024-01-06T14:50:51.764Z,0.50
2024-01-06T14:53:18.952Z,0.50
2024-01-06T14:55:46.056Z,0.40
2024-01-06T14:58:13.705Z,0.50
2024-01-06T15:00:40.956Z,0.60
2024-01-06T15:03:08.217Z,0.60
2024-01-06T15:05:35.507Z,0.40
2024-01-06T15:08:02.697Z,0.50
2024-01-06T15:10:29.715Z,0.50
2024-01-06T15:12:57.043Z,0.50
2024-01-06T15:15:24.254Z,0.50
2024-01-06T15:17:51.269Z,0.60
2024-01-06T15:20:18.364Z,0.60
2024-01-06T15:22:45.584Z,0.60
2024-01-06T15:25:12.687Z,0.50
2024-01-06T15:27:39.808Z,0.60
2024-01-06T15:30:09.961Z,0.40
2024-01-06T15:32:38.316Z,0.40
2024-01-06T15:35:06.924Z,0.40
2024-01-06T15:37:34.069Z,0.40
2024-01-06T15:40:01.215Z,0.40
2024-01-06T15:42:28.971Z,0.40
2024-01-06T15:44:56.436Z,0.30
2024-01-06T15:47:23.538Z,0.30
2024-01-06T15:49:50.781Z,0.20
2024-01-06T15:52:22.652Z,0.20
2024-01-06T15:54:50.435Z,0.20
2024-01-06T15:57:17.764Z,0.20
2024-01-06T15:59:45.390Z,0.20
2024-01-06T16:02:12.574Z,0.20
2024-01-06T16:04:39.592Z,0.20
2024-01-06T16:07:07.288Z,0.20
2024-01-06T16:09:34.583Z,0.20
2024-01-06T16:12:01.583Z,0.20
2024-01-06T16:14:31.453Z,0.30
2024-01-06T16:17:01.307Z,0.30
2024-01-06T16:19:29.390Z,0.30
2024-01-06T16:22:07.312Z,0.20
2024-01-06T16:24:42.043Z,0.20
2024-01-06T16:27:09.187Z,0.20
2024-01-06T16:29:39.253Z,0.20
2024-01-06T16:32:06.987Z,0.20
2024-01-06T16:34:35.221Z,0.20
2024-01-06T16:37:02.421Z,0.20
2024-01-06T16:39:32.481Z,0.20
2024-01-06T16:41:59.795Z,0.10
2024-01-06T16:44:26.821Z,0.10
2024-01-06T16:46:58.344Z,0.10
2024-01-06T16:49:28.274Z,0.00
2024-01-06T16:51:55.944Z,0.10
2024-01-06T16:54:22.971Z,0.00
2024-01-06T16:56:50.187Z,0.00
2024-01-06T16:59:17.928Z,0.10
2024-01-06T17:01:45.242Z,0.00
2024-01-06T17:04:14.301Z,0.10
2024-01-06T17:06:41.580Z,0.10
2024-01-06T17:09:08.663Z,0.10
2024-01-06T17:11:36.171Z,0.20
2024-01-06T17:14:03.920Z,0.20
2024-01-06T17:16:30.998Z,0.10
2024-01-06T17:18:58.193Z,0.00
2024-01-06T17:21:25.768Z,0.10
2024-01-06T17:23:54.198Z,0.00
2024-01-06T17:26:21.451Z,0.00
2024-01-06T17:28:48.597Z,-0.10
2024-01-06T17:31:15.815Z,0.00
2024-01-06T17:33:43.195Z,0.00
2024-01-06T17:36:10.333Z,0.00
2024-01-06T17:38:37.348Z,0.00
2024-01-06T17:41:05.064Z,0.00
2024-01-06T17:43:32.214Z,0.00
2024-01-06T17:45:59.232Z,0.00
2024-01-06T17:48:26.462Z,0.00
2024-01-06T17:50:53.683Z,0.00
2024-01-06T17:53:20.874Z,0.00
2024-01-06T17:55:48.214Z,0.10
2024-01-06T17:58:15.421Z,0.00
2024-01-06T18:00:42.765Z,0.00
2024-01-06T18:03:09.817Z,0.00
2024-01-06T18:05:36.813Z,0.00
2024-01-06T18:08:04.265Z,0.00
2024-01-06T18:10:31.282Z,0.00
2024-01-06T18:12:58.336Z,0.10
2024-01-06T18:15:25.430Z,0.10
2024-01-06T18:17:52.726Z,0.00
2024-01-06T18:20:22.838Z,0.00
2024-01-06T18:22:50.418Z,0.00
2024-01-06T18:25:17.635Z,-0.10
2024-01-06T18:27:46.370Z,-0.10
2024-01-06T18:30:13.843Z,-0.10
2024-01-06T18:32:40.926Z,-0.10
2024-01-06T18:35:09.237Z,-0.20
2024-01-06T18:37:36.363Z,-0.20
2024-01-06T18:40:05.584Z,-0.20
2024-01-06T18:42:34.224Z,-0.20
2024-01-06T18:45:01.856Z,-0.20
2024-01-06T18:47:29.820Z,-0.20
2024-01-06T18:49:57.394Z,-0.20
2024-01-06T18:52:24.897Z,-0.20
2024-01-06T18:54:52.058Z,-0.30
2024-01-06T18:57:19.446Z,-0.30
2024-01-06T18:59:46.740Z,-0.30
2024-01-06T19:02:14.564Z,-0.30
2024-01-06T19:04:43.385Z,-0.30
2024-01-06T19:07:11.197Z,-0.30
2024-01-06T19:09:38.362Z,-0.30
2024-01-06T19:12:06.835Z,-0.30
2024-01-06T19:14:37.121Z,-0.40
2024-01-06T19:17:04.825Z,-0.30
2024-01-06T19:19:32.203Z,-0.40
2024-01-06T19:21:59.305Z,-0.30
2024-01-06T19:24:32.589Z,-0.40
2024-01-06T19:27:03.708Z,-0.30
2024-01-06T19:29:30.875Z,-0.40
2024-01-06T19:31:58.657Z,-0.40
2024-01-06T19:34:25.942Z,-0.40
2024-01-06T19:36:53.248Z,-0.40
2024-01-06T19:39:20.366Z,-0.50
2024-01-06T19:41:47.426Z,-0.50
2024-01-06T19:44:14.456Z,-0.50
2024-01-06T19:46:41.571Z,-0.60
2024-01-06T19:49:08.833Z,-0.60
2024-01-06T19:51:36.331Z,-0.70
2024-01-06T19:54:03.404Z,-0.70
2024-01-06T19:56:30.535Z,-0.70
2024-01-06T19:58:57.738Z,-0.80
2024-01-06T20:01:24.926Z,-0.80
2024-01-06T20:03:52.058Z,-0.80
2024-01-06T20:06:20.408Z,-0.80
2024-01-06T20:08:47.528Z,-0.70
2024-01-06T20:11:14.644Z,-0.70
2024-01-06T20:13:41.699Z,-0.70
2024-01-06T20:16:08.846Z,-0.70
2024-01-06T20:18:36.132Z,-0.90
2024-01-06T20:21:04.547Z,-0.80
2024-01-06T20:23:31.563Z,-0.80
2024-01-06T20:25:58.567Z,-0.70
2024-01-06T20:28:25.643Z,-0.70
2024-01-06T20:30:53.092Z,-0.70
2024-01-06T20:33:20.480Z,-0.70
2024-01-06T20:35:48.497Z,-0.70
2024-01-06T20:38:15.957Z,-0.80
2024-01-06T20:40:43.784Z,-0.80
2024-01-06T20:43:11.140Z,-0.90
2024-01-06T20:45:38.194Z,-0.90
2024-01-06T20:48:07.868Z,-1.00
2024-01-06T20:50:34.862Z,-0.90
2024-01-06T20:53:01.953Z,-1.00
2024-01-06T20:55:29.070Z,-0.90
2024-01-06T20:57:57.341Z,-0.90
2024-01-06T21:00:25.669Z,-1.00
2024-01-06T21:02:53.330Z,-0.90
2024-01-06T21:05:20.334Z,-0.90
2024-01-06T21:07:48.843Z,-0.90
2024-01-06T21:10:16.844Z,-0.90
2024-01-06T21:12:44.299Z,-0.90
2024-01-06T21:15:11.597Z,-0.90
2024-01-06T21:17:39.746Z,-1.10
2024-01-06T21:20:08.572Z,-1.10
2024-01-06T21:22:35.695Z,-1.10
2024-01-06T21:25:05.042Z,-1.30
2024-01-06T21:27:34.937Z,-1.30
2024-01-06T21:30:05.864Z,-1.30
2024-01-06T21:32:34.064Z,-1.30
2024-01-06T21:35:03.246Z,-1.30
2024-01-06T21:37:30.492Z,-1.30
2024-01-06T21:39:58.760Z,-1.20
2024-01-06T21:42:25.896Z,-1.20
2024-01-06T21:44:52.858Z,-1.20
2024-01-06T21:47:19.760Z,-1.20
2024-01-06T21:49:47.046Z,-1.20
2024-01-06T21:52:16.758Z,-1.30
2024-01-06T21:54:43.882Z,-1.30
2024-01-06T21:57:10.967Z,-1.20
2024-01-06T21:59:38.008Z,-1.20
2024-01-06T22:02:05.255Z,-1.30
2024-01-06T22:04:32.692Z,-1.30
2024-01-06T22:07:00.165Z,-1.40
2024-01-06T22:09:27.240Z,-1.40
2024-01-06T22:11:54.352Z,-1.40
2024-01-06T22:14:23.663Z,-1.40
2024-01-06T22:16:51.049Z,-1.40
2024-01-06T22:19:18.097Z,-1.50
2024-01-06T22:21:47.971Z,-1.70
2024-01-06T22:24:17.145Z,-1.70
2024-01-06T22:26:44.343Z,-1.90
2024-01-06T22:29:12.035Z,-1.90
2024-01-06T22:31:45.339Z,-2.00
2024-01-06T22:34:15.802Z,-2.00
2024-01-06T22:36:43.050Z,-1.90
2024-01-06T22:39:10.211Z,-1.90
2024-01-06T22:41:38.702Z,-2.10
2024-01-06T22:44:05.979Z,-2.20
2024-01-06T22:46:33.666Z,-2.10
2024-01-06T22:49:00.874Z,-2.10
2024-01-06T22:51:27.929Z,-2.20
2024-01-06T22:53:55.127Z,-2.20
2024-01-06T22:56:22.314Z,-2.30
2024-01-06T22:58:49.344Z,-2.20
2024-01-06T23:01:16.396Z,-2.20
2024-01-06T23:03:43.475Z,-2.30
2024-01-06T23:06:10.459Z,-2.40
2024-01-06T23:08:37.688Z,-2.40
2024-01-06T23:11:09.881Z,-2.50
2024-01-06T23:13:38.098Z,-2.50
2024-01-06T23:16:05.889Z,-2.50
2024-01-06T23:18:33.073Z,-2.50
2024-01-06T23:21:00.610Z,-2.50
2024-01-06T23:23:27.538Z,-2.40
2024-01-06T23:25:54.644Z,-2.50
2024-01-06T23:28:21.634Z,-2.50
2024-01-06T23:30:49.068Z,-2.60
2024-01-06T23:33:16.273Z,-2.60
2024-01-06T23:35:43.881Z,-2.70
2024-01-06T23:38:10.837Z,-2.70
2024-01-06T23:40:37.780Z,-2.80
2024-01-06T23:43:08.128Z,-2.80
2024-01-06T23:45:35.464Z,-2.80
2024-01-06T23:48:02.585Z,-2.80
2024-01-06T23:50:31.321Z,-2.70
2024-01-06T23:52:58.357Z,-2.70
2024-01-06T23:55:26.183Z,-2.80
2024-01-06T23:57:53.253Z,-2.70
